createdAt,value
2023-02-25T00:01:33.559Z,4.81
2023-02-25T00:04:41.146Z,4.77
2023-02-25T00:07:47.362Z,4.55
2023-02-25T00:10:59.133Z,4.73
2023-02-25T00:14:05.298Z,4.38
2023-02-25T00:17:13.299Z,4.17
2023-02-25T00:20:22.566Z,4.17
2023-02-25T00:23:29.092Z,4.20
2023-02-25T00:26:35.402Z,3.56
2023-02-25T00:29:42.006Z,4.02
2023-02-25T00:32:50.818Z,4.29
2023-02-25T00:35:57.025Z,3.72
2023-02-25T00:39:03.585Z,4.09
2023-02-25T00:42:10.273Z,3.13
2023-02-25T00:45:16.297Z,3.47
2023-02-25T00:48:23.789Z,2.51
2023-02-25T00:51:32.939Z,2.90
2023-02-25T00:54:39.727Z,2.89
2023-02-25T00:57:45.705Z,3.15
2023-02-25T01:00:52.250Z,2.90
2023-02-25T01:04:00.680Z,2.98
2023-02-25T01:07:07.953Z,2.64
2023-02-25T01:10:14.341Z,2.95
2023-02-25T01:13:20.990Z,3.27
2023-02-25T01:16:30.252Z,3.30
2023-02-25T01:19:37.952Z,3.35
2023-02-25T01:22:44.255Z,3.47
2023-02-25T01:25:50.932Z,3.51
2023-02-25T01:28:57.626Z,3.46
2023-02-25T01:32:05.551Z,3.21
2023-02-25T01:35:13.551Z,3.21
2023-02-25T01:38:20.163Z,3.68
2023-02-25T01:41:26.871Z,3.28
2023-02-25T01:44:35.301Z,2.48
2023-02-25T01:47:42.090Z,2.24
2023-02-25T01:50:53.413Z,2.24
2023-02-25T01:54:02.940Z,2.13
2023-02-25T01:57:11.776Z,1.91
2023-02-25T02:00:19.125Z,2.51
2023-02-25T02:03:27.980Z,2.23
2023-02-25T02:06:38.204Z,2.58
2023-02-25T02:09:56.064Z,2.95
2023-02-25T02:13:02.456Z,2.36
2023-02-25T02:16:24.003Z,2.92
2023-02-25T02:19:40.607Z,3.17
2023-02-25T02:23:22.223Z,2.58
2023-02-25T02:26:52.082Z,2.19
2023-02-25T02:30:31.879Z,1.87
2023-02-25T02:33:50.788Z,1.52
2023-02-25T02:37:09.080Z,2.16
2023-02-25T02:40:24.227Z,2.29
2023-02-25T02:43:40.626Z,1.92
2023-02-25T02:46:50.188Z,2.35
2023-02-25T02:50:04.030Z,2.73
2023-02-25T02:53:14.597Z,2.70
2023-02-25T02:56:24.678Z,2.41
2023-02-25T02:59:36.901Z,1.70
2023-02-25T03:02:46.399Z,1.27
2023-02-25T03:05:55.059Z,1.41
2023-02-25T03:09:06.030Z,2.17
2023-02-25T03:12:12.485Z,1.83
2023-02-25T03:15:18.776Z,1.65
2023-02-25T03:18:31.985Z,1.68
2023-02-25T03:21:43.076Z,2.05
2023-02-25T03:24:54.943Z,1.87
2023-02-25T03:28:05.563Z,1.81
2023-02-25T03:31:15.935Z,2.09
2023-02-25T03:34:27.048Z,2.19
2023-02-25T03:37:38.766Z,2.23
2023-02-25T03:40:45.303Z,1.94
2023-02-25T03:43:55.512Z,1.43
2023-02-25T03:47:04.517Z,1.68
2023-02-25T03:50:13.884Z,1.61
2023-02-25T03:53:21.987Z,1.65
2023-02-25T03:56:28.523Z,1.57
2023-02-25T03:59:34.622Z,0.85
2023-02-25T04:02:40.902Z,1.13
2023-02-25T04:05:46.837Z,0.42
2023-02-25T04:08:54.472Z,1.29
2023-02-25T04:12:00.705Z,1.26
2023-02-25T04:15:08.138Z,1.53
2023-02-25T04:18:14.577Z,2.46
2023-02-25T04:21:29.961Z,2.55
2023-02-25T04:24:38.041Z,2.82
2023-02-25T04:27:44.463Z,2.62
2023-02-25T04:30:50.844Z,2.51
2023-02-25T04:33:58.324Z,2.58
2023-02-25T04:37:05.169Z,2.23
2023-02-25T04:40:17.049Z,2.14
2023-02-25T04:43:23.264Z,2.41
2023-02-25T04:46:29.436Z,2.36
2023-02-25T04:49:45.249Z,1.64
2023-02-25T04:52:51.736Z,1.92
2023-02-25T04:55:59.037Z,2.37
2023-02-25T04:59:05.601Z,2.17
2023-02-25T05:02:11.968Z,2.47
2023-02-25T05:05:18.962Z,2.62
2023-02-25T05:08:25.954Z,1.86
2023-02-25T05:11:33.496Z,2.01
2023-02-25T05:14:39.783Z,2.77
2023-02-25T05:17:45.792Z,2.83
2023-02-25T05:20:52.377Z,2.54
2023-02-25T05:23:58.526Z,2.26
2023-02-25T05:27:09.482Z,3.15
2023-02-25T05:30:16.714Z,2.71
2023-02-25T05:33:23.575Z,2.85
2023-02-25T05:36:30.544Z,3.30
2023-02-25T05:39:36.864Z,3.39
2023-02-25T05:42:44.149Z,3.43
2023-02-25T05:45:54.654Z,3.87
2023-02-25T05:49:00.774Z,3.60
2023-02-25T05:52:07.006Z,4.09
2023-02-25T05:55:12.959Z,3.52
2023-02-25T05:58:20.408Z,3.72
2023-02-25T06:01:29.571Z,3.74
2023-02-25T06:04:35.636Z,4.09
2023-02-25T06:07:41.593Z,4.02
2023-02-25T06:10:47.841Z,3.63
2023-02-25T06:13:56.329Z,3.85
2023-02-25T06:17:03.417Z,4.33
2023-02-25T06:20:10.683Z,4.37
2023-02-25T06:23:17.184Z,3.48
2023-02-25T06:26:24.361Z,3.67
2023-02-25T06:29:31.957Z,4.06
2023-02-25T06:32:38.653Z,4.14
2023-02-25T06:35:45.119Z,3.85
2023-02-25T06:38:51.510Z,3.75
2023-02-25T06:41:57.487Z,3.97
2023-02-25T06:45:05.532Z,4.46
2023-02-25T06:48:12.175Z,4.23
2023-02-25T06:51:18.189Z,4.27
2023-02-25T06:54:24.685Z,4.60
2023-02-25T06:57:31.175Z,5.09
2023-02-25T07:00:43.217Z,5.31
2023-02-25T07:03:49.696Z,5.18
2023-02-25T07:06:56.672Z,4.92
2023-02-25T07:10:03.208Z,5.61
2023-02-25T07:13:10.656Z,5.45
2023-02-25T07:16:18.629Z,6.00
2023-02-25T07:19:25.108Z,6.38
2023-02-25T07:22:31.863Z,6.54
2023-02-25T07:25:39.974Z,6.30
2023-02-25T07:28:48.362Z,5.95
2023-02-25T07:31:56.659Z,6.81
2023-02-25T07:35:02.678Z,7.21
2023-02-25T07:38:12.940Z,7.00
2023-02-25T07:41:20.974Z,6.86
2023-02-25T07:44:27.216Z,7.42
2023-02-25T07:47:35.024Z,7.35
2023-02-25T07:50:41.339Z,7.63
2023-02-25T07:53:48.764Z,6.96
2023-02-25T07:56:55.108Z,7.34
2023-02-25T08:00:01.321Z,7.19
2023-02-25T08:03:09.114Z,8.01
2023-02-25T08:06:15.816Z,7.46
2023-02-25T08:09:21.903Z,8.11
2023-02-25T08:12:27.997Z,8.28
2023-02-25T08:15:34.447Z,7.92
2023-02-25T08:18:42.909Z,8.18
2023-02-25T08:21:48.885Z,8.64
2023-02-25T08:24:54.944Z,8.52
2023-02-25T08:28:02.514Z,8.81
2023-02-25T08:31:12.043Z,8.46
2023-02-25T08:34:19.836Z,8.72
2023-02-25T08:37:26.979Z,8.63
2023-02-25T08:40:33.555Z,9.07
2023-02-25T08:43:40.997Z,8.84
2023-02-25T08:46:47.977Z,9.53
2023-02-25T08:49:55.367Z,9.51
2023-02-25T08:53:02.122Z,9.67
2023-02-25T08:56:09.000Z,10.27
2023-02-25T08:59:16.822Z,10.09
2023-02-25T09:02:24.343Z,10.45
2023-02-25T09:05:31.635Z,10.52
2023-02-25T09:08:37.869Z,10.42
2023-02-25T09:11:44.908Z,10.57
2023-02-25T09:14:51.479Z,10.95
2023-02-25T09:17:57.758Z,10.95
2023-02-25T09:21:05.709Z,11.14
2023-02-25T09:24:12.203Z,11.46
2023-02-25T09:27:18.600Z,11.64
2023-02-25T09:30:24.780Z,12.42
2023-02-25T09:33:32.929Z,12.55
2023-02-25T09:36:40.681Z,11.10
2023-02-25T09:39:47.170Z,12.06
2023-02-25T09:43:06.146Z,12.69
2023-02-25T09:46:18.903Z,12.76
2023-02-25T09:49:29.666Z,12.41
2023-02-25T09:52:41.183Z,12.46
2023-02-25T09:55:50.896Z,12.19
2023-02-25T09:58:59.904Z,12.94
2023-02-25T10:02:21.804Z,13.27
2023-02-25T10:05:33.833Z,12.48
2023-02-25T10:08:48.967Z,13.16
2023-02-25T10:12:05.220Z,12.94
2023-02-25T10:15:39.983Z,14.26
2023-02-25T10:19:00.193Z,14.45
2023-02-25T10:22:20.915Z,14.32
2023-02-25T10:25:30.359Z,14.85
2023-02-25T10:28:37.502Z,15.19
2023-02-25T10:31:45.883Z,15.64
2023-02-25T10:34:54.005Z,14.71
2023-02-25T10:37:59.918Z,14.73
2023-02-25T10:41:07.762Z,15.01
2023-02-25T10:44:14.527Z,14.76
2023-02-25T10:47:30.433Z,15.82
2023-02-25T10:50:45.444Z,15.23
2023-02-25T10:54:08.532Z,15.41
2023-02-25T10:57:17.974Z,15.11
2023-02-25T11:00:29.985Z,15.27
2023-02-25T11:03:45.498Z,14.34
2023-02-25T11:06:52.012Z,15.76
2023-02-25T11:10:16.343Z,15.80
2023-02-25T11:13:31.166Z,15.14
2023-02-25T11:16:40.048Z,16.08
2023-02-25T11:19:49.957Z,16.31
2023-02-25T11:22:57.987Z,15.93
2023-02-25T11:26:06.766Z,15.93
2023-02-25T11:29:19.087Z,16.55
2023-02-25T11:32:25.645Z,16.44
2023-02-25T11:35:37.453Z,16.24
2023-02-25T11:38:44.292Z,15.77
2023-02-25T11:41:51.952Z,15.86
2023-02-25T11:45:03.430Z,16.15
2023-02-25T11:48:19.726Z,17.03
2023-02-25T11:51:31.686Z,16.21
2023-02-25T11:54:48.047Z,17.33
2023-02-25T11:58:06.349Z,16.42
2023-02-25T12:01:22.346Z,16.94
2023-02-25T12:04:58.509Z,16.34
2023-02-25T12:08:52.223Z,16.62
2023-02-25T12:12:17.721Z,16.88
2023-02-25T12:15:33.582Z,16.83
2023-02-25T12:19:18.246Z,15.73
2023-02-25T12:23:00.031Z,16.60
2023-02-25T12:26:11.345Z,16.22
2023-02-25T12:29:42.413Z,16.70
2023-02-25T12:32:57.332Z,16.96
2023-02-25T12:36:23.405Z,15.92
2023-02-25T12:39:57.353Z,16.73
2023-02-25T12:43:17.200Z,16.60
2023-02-25T12:46:33.827Z,17.09
2023-02-25T12:50:05.865Z,17.23
2023-02-25T12:53:31.377Z,17.02
2023-02-25T12:57:05.305Z,17.04
2023-02-25T13:00:47.901Z,16.56
2023-02-25T13:04:18.181Z,16.51
2023-02-25T13:08:08.638Z,15.92
2023-02-25T13:11:26.389Z,16.41
2023-02-25T13:14:48.097Z,16.55
2023-02-25T13:18:10.436Z,16.38
2023-02-25T13:21:34.124Z,16.00
2023-02-25T13:24:49.404Z,16.39
2023-02-25T13:28:20.526Z,16.15
2023-02-25T13:31:37.268Z,15.14
2023-02-25T13:34:51.358Z,15.70
2023-02-25T13:38:10.028Z,15.95
2023-02-25T13:41:32.948Z,16.12
2023-02-25T13:45:13.300Z,16.08
2023-02-25T13:48:40.246Z,16.15
2023-02-25T13:52:22.650Z,16.47
2023-02-25T13:55:44.482Z,15.74
2023-02-25T13:59:03.652Z,15.12
2023-02-25T14:02:36.107Z,15.01
2023-02-25T14:06:06.143Z,15.00
2023-02-25T14:09:26.406Z,14.83
2023-02-25T14:12:45.682Z,14.85
2023-02-25T14:16:02.356Z,14.89
2023-02-25T14:19:32.608Z,14.86
2023-02-25T14:22:44.321Z,14.54
2023-02-25T14:26:07.765Z,14.56
2023-02-25T14:29:24.970Z,14.72
2023-02-25T14:32:45.598Z,14.44
2023-02-25T14:36:20.217Z,14.00
2023-02-25T14:39:45.644Z,14.36
2023-02-25T14:43:06.266Z,14.25
2023-02-25T14:46:26.919Z,14.25
2023-02-25T14:49:38.963Z,14.18
2023-02-25T14:53:12.782Z,14.05
2023-02-25T14:56:47.736Z,14.00
2023-02-25T15:00:12.936Z,13.94
2023-02-25T15:03:44.922Z,13.66
2023-02-25T15:07:01.642Z,13.72
2023-02-25T15:10:28.437Z,13.67
2023-02-25T15:14:03.097Z,13.57
2023-02-25T15:17:44.201Z,13.63
2023-02-25T15:20:50.803Z,13.53
2023-02-25T15:23:58.057Z,13.63
2023-02-25T15:27:49.349Z,13.31
2023-02-25T15:31:34.397Z,13.13
2023-02-25T15:34:55.802Z,13.33
2023-02-25T15:38:09.646Z,13.21
2023-02-25T15:41:44.900Z,13.27
2023-02-25T15:44:53.002Z,13.00
2023-02-25T15:48:29.532Z,13.06
2023-02-25T15:51:44.103Z,13.14
2023-02-25T15:54:54.032Z,12.99
2023-02-25T15:58:00.397Z,12.94
2023-02-25T16:01:28.250Z,12.81
2023-02-25T16:04:47.391Z,12.85
2023-02-25T16:08:07.135Z,12.95
2023-02-25T16:11:24.271Z,12.45
2023-02-25T16:14:33.528Z,12.50
2023-02-25T16:17:41.631Z,12.60
2023-02-25T16:20:50.981Z,12.47
2023-02-25T16:24:00.708Z,12.58
2023-02-25T16:27:13.938Z,12.59
2023-02-25T16:30:27.130Z,12.54
2023-02-25T16:33:44.961Z,12.52
2023-02-25T16:37:03.023Z,12.47
2023-02-25T16:40:16.405Z,12.52
2023-02-25T16:43:27.281Z,12.54
2023-02-25T16:46:35.711Z,12.51
2023-02-25T16:49:47.244Z,12.25
2023-02-25T16:52:55.151Z,12.35
2023-02-25T16:56:01.879Z,12.44
2023-02-25T16:59:18.276Z,12.49
2023-02-25T17:02:26.453Z,12.34
2023-02-25T17:05:35.845Z,12.34
2023-02-25T17:08:46.317Z,12.12
2023-02-25T17:11:56.397Z,12.29
2023-02-25T17:15:06.205Z,12.14
2023-02-25T17:18:20.146Z,12.24
2023-02-25T17:21:30.342Z,12.07
2023-02-25T17:24:37.274Z,12.15
2023-02-25T17:27:44.162Z,12.02
2023-02-25T17:30:51.357Z,12.23
2023-02-25T17:34:00.973Z,12.11
2023-02-25T17:37:10.393Z,12.35
2023-02-25T17:40:17.102Z,12.13
2023-02-25T17:43:25.341Z,12.15
2023-02-25T17:46:36.399Z,12.56
2023-02-25T17:49:42.574Z,12.30
2023-02-25T17:52:51.707Z,12.06
2023-02-25T17:55:58.204Z,12.32
2023-02-25T17:59:07.220Z,12.24
2023-02-25T18:02:36.259Z,12.10
2023-02-25T18:05:51.357Z,12.49
2023-02-25T18:09:02.670Z,12.16
2023-02-25T18:12:21.405Z,12.22
2023-02-25T18:15:31.063Z,11.81
2023-02-25T18:18:37.839Z,12.06
2023-02-25T18:21:44.552Z,11.94
2023-02-25T18:24:55.652Z,11.99
2023-02-25T18:28:02.676Z,11.92
2023-02-25T18:31:09.955Z,11.90
2023-02-25T18:34:16.116Z,12.12
2023-02-25T18:37:22.438Z,11.86
2023-02-25T18:40:31.740Z,11.82
2023-02-25T18:43:41.966Z,11.64
2023-02-25T18:46:49.811Z,11.66
2023-02-25T18:49:55.785Z,11.63
2023-02-25T18:53:02.400Z,11.62
2023-02-25T18:56:13.088Z,11.72
2023-02-25T18:59:19.385Z,11.59
2023-02-25T19:02:29.975Z,11.57
2023-02-25T19:05:36.894Z,11.65
2023-02-25T19:08:42.848Z,11.56
2023-02-25T19:11:51.967Z,11.56
2023-02-25T19:15:00.524Z,11.58
2023-02-25T19:18:06.982Z,11.68
2023-02-25T19:21:16.559Z,11.81
2023-02-25T19:24:22.769Z,11.75
2023-02-25T19:27:31.446Z,11.90
2023-02-25T19:30:40.988Z,11.58
2023-02-25T19:33:47.369Z,11.70
2023-02-25T19:36:53.520Z,11.72
2023-02-25T19:39:59.732Z,11.48
2023-02-25T19:43:07.810Z,11.38
2023-02-25T19:46:17.389Z,11.33
2023-02-25T19:49:23.662Z,11.18
2023-02-25T19:52:30.397Z,11.03
2023-02-25T19:55:37.136Z,11.32
2023-02-25T19:58:44.737Z,11.67
2023-02-25T20:01:50.912Z,11.55
2023-02-25T20:04:57.352Z,11.36
2023-02-25T20:08:03.847Z,11.12
2023-02-25T20:11:10.931Z,11.09
2023-02-25T20:14:18.841Z,11.01
2023-02-25T20:17:26.051Z,11.01
2023-02-25T20:20:32.287Z,10.54
2023-02-25T20:23:39.833Z,10.63
2023-02-25T20:26:46.524Z,10.47
2023-02-25T20:29:55.442Z,10.49
2023-02-25T20:33:02.843Z,10.32
2023-02-25T20:36:20.820Z,10.63
2023-02-25T20:39:44.163Z,10.64
2023-02-25T20:42:50.245Z,10.80
2023-02-25T20:45:58.199Z,10.49
2023-02-25T20:49:06.066Z,10.47
2023-02-25T20:52:13.713Z,10.45
2023-02-25T20:55:19.731Z,10.53
2023-02-25T20:58:25.878Z,10.48
2023-02-25T21:01:33.848Z,10.48
2023-02-25T21:04:40.027Z,10.48
2023-02-25T21:07:46.433Z,10.51
2023-02-25T21:10:52.702Z,10.49
2023-02-25T21:13:58.686Z,10.46
2023-02-25T21:17:09.686Z,10.27
2023-02-25T21:20:16.217Z,10.38
2023-02-25T21:23:24.657Z,10.31
2023-02-25T21:26:30.659Z,10.25
2023-02-25T21:29:37.019Z,10.37
2023-02-25T21:32:44.794Z,10.49
2023-02-25T21:35:53.444Z,10.70
2023-02-25T21:38:59.754Z,10.80
2023-02-25T21:42:06.069Z,10.91
2023-02-25T21:45:13.195Z,10.57
2023-02-25T21:48:20.908Z,10.74
2023-02-25T21:51:30.017Z,10.91
2023-02-25T21:54:36.486Z,10.86
2023-02-25T21:57:42.522Z,10.95
2023-02-25T22:00:48.675Z,10.97
2023-02-25T22:03:56.668Z,10.91
2023-02-25T22:07:02.912Z,10.86
2023-02-25T22:10:10.854Z,10.85
2023-02-25T22:13:17.734Z,10.66
2023-02-25T22:16:24.909Z,10.64
2023-02-25T22:19:32.945Z,10.62
2023-02-25T22:22:39.632Z,10.72
2023-02-25T22:25:45.691Z,10.67
2023-02-25T22:28:55.934Z,10.61
2023-02-25T22:32:02.497Z,10.37
2023-02-25T22:35:10.671Z,10.52
2023-02-25T22:38:16.896Z,10.57
2023-02-25T22:41:25.317Z,10.52
2023-02-25T22:44:31.605Z,10.45
2023-02-25T22:47:38.028Z,10.51
2023-02-25T22:50:49.813Z,10.80
2023-02-25T22:53:56.524Z,10.72
2023-02-25T22:57:02.897Z,10.69
2023-02-25T23:00:17.029Z,10.63
2023-02-25T23:03:23.934Z,10.61
2023-02-25T23:06:43.445Z,10.73
2023-02-25T23:09:50.624Z,10.75
2023-02-25T23:12:58.880Z,10.77
2023-02-25T23:16:06.295Z,10.58
2023-02-25T23:19:16.056Z,10.72
2023-02-25T23:22:26.869Z,10.54
2023-02-25T23:25:33.406Z,10.86
2023-02-25T23:28:39.574Z,10.63
2023-02-25T23:31:48.134Z,10.65
2023-02-25T23:34:54.459Z,10.82
2023-02-25T23:38:02.661Z,10.98
2023-02-25T23:41:09.476Z,10.80
2023-02-25T23:44:15.800Z,10.90
2023-02-25T23:47:22.449Z,10.82
2023-02-25T23:50:29.009Z,10.69
2023-02-25T23:53:37.134Z,11.06
2023-02-25T23:56:43.172Z,10.94
2023-02-25T23:59:49.458Z,10.86
